sensor_id;sensor_type;location;lat;lon;timestamp;temperature;humidity
4081;DHT22;2055;50.074;8.436;2023-02-18T00:01:19;11.40;99.90
4081;DHT22;2055;50.074;8.436;2023-02-18T00:03:45;11.20;99.90
4081;DHT22;2055;50.074;8.436;2023-02-18T00:08:42;11.30;99.90
4081;DHT22;2055;50.074;8.436;2023-02-18T00:11:08;11.30;99.90
4081;DHT22;2055;50.074;8.436;2023-02-18T00:13:34;11.30;99.90
4081;DHT22;2055;50.074;8.436;2023-02-18T00:16:05;11.30;99.90
4081;DHT22;2055;50.074;8.436;2023-02-18T00:18:31;11.30;99.90
4081;DHT22;2055;50.074;8.436;2023-02-18T00:20:57;11.50;99.90
4081;DHT22;2055;50.074;8.436;2023-02-18T00:23:23;11.30;99.90
4081;DHT22;2055;50.074;8.436;2023-02-18T00:28:29;11.20;99.90
4081;DHT22;2055;50.074;8.436;2023-02-18T00:30:55;11.30;99.90
4081;DHT22;2055;50.074;8.436;2023-02-18T00:33:20;11.30;99.90
4081;DHT22;2055;50.074;8.436;2023-02-18T00:35:46;11.30;99.90
4081;DHT22;2055;50.074;8.436;2023-02-18T00:38:12;11.30;99.90
4081;DHT22;2055;50.074;8.436;2023-02-18T00:40:38;11.30;99.90
4081;DHT22;2055;50.074;8.436;2023-02-18T00:43:04;11.30;99.90
4081;DHT22;2055;50.074;8.436;2023-02-18T00:45:30;11.30;99.90
4081;DHT22;2055;50.074;8.436;2023-02-18T00:47:55;11.30;99.90
4081;DHT22;2055;50.074;8.436;2023-02-18T00:50:21;11.30;99.90
4081;DHT22;2055;50.074;8.436;2023-02-18T00:52:46;11.30;99.90
4081;DHT22;2055;50.074;8.436;2023-02-18T00:55:12;11.40;99.90
4081;DHT22;2055;50.074;8.436;2023-02-18T00:57:38;11.40;99.90
4081;DHT22;2055;50.074;8.436;2023-02-18T01:00:04;11.40;99.90
4081;DHT22;2055;50.074;8.436;2023-02-18T01:02:30;11.40;99.90
4081;DHT22;2055;50.074;8.436;2023-02-18T01:04:56;11.30;99.90
4081;DHT22;2055;50.074;8.436;2023-02-18T01:07:21;11.30;99.90
4081;DHT22;2055;50.074;8.436;2023-02-18T01:09:47;11.20;99.90
4081;DHT22;2055;50.074;8.436;2023-02-18T01:12:12;11.20;99.90
4081;DHT22;2055;50.074;8.436;2023-02-18T01:14:38;11.20;99.90
4081;DHT22;2055;50.074;8.436;2023-02-18T01:17:03;11.10;99.90
4081;DHT22;2055;50.074;8.436;2023-02-18T01:19:29;11.10;99.90
4081;DHT22;2055;50.074;8.436;2023-02-18T01:21:54;11.10;99.90
4081;DHT22;2055;50.074;8.436;2023-02-18T01:24:20;11.10;99.90
4081;DHT22;2055;50.074;8.436;2023-02-18T01:26:45;11.00;99.90
4081;DHT22;2055;50.074;8.436;2023-02-18T01:29:11;11.00;99.90
4081;DHT22;2055;50.074;8.436;2023-02-18T01:31:36;11.00;99.90
4081;DHT22;2055;50.074;8.436;2023-02-18T01:34:02;11.00;99.90
4081;DHT22;2055;50.074;8.436;2023-02-18T01:36:28;11.00;99.90
4081;DHT22;2055;50.074;8.436;2023-02-18T01:38:54;11.00;99.90
4081;DHT22;2055;50.074;8.436;2023-02-18T01:41:19;11.00;99.90
4081;DHT22;2055;50.074;8.436;2023-02-18T01:43:45;11.00;99.90
4081;DHT22;2055;50.074;8.436;2023-02-18T01:46:19;11.00;99.90
4081;DHT22;2055;50.074;8.436;2023-02-18T01:48:55;11.00;99.90
4081;DHT22;2055;50.074;8.436;2023-02-18T01:51:32;11.00;99.90
4081;DHT22;2055;50.074;8.436;2023-02-18T01:54:03;11.00;99.90
4081;DHT22;2055;50.074;8.436;2023-02-18T01:59:05;11.00;99.90
4081;DHT22;2055;50.074;8.436;2023-02-18T02:01:32;11.00;99.90
4081;DHT22;2055;50.074;8.436;2023-02-18T02:03:58;11.10;99.90
4081;DHT22;2055;50.074;8.436;2023-02-18T02:06:24;11.10;99.90
4081;DHT22;2055;50.074;8.436;2023-02-18T02:08:52;11.10;99.90
4081;DHT22;2055;50.074;8.436;2023-02-18T02:20:17;11.00;99.90
4081;DHT22;2055;50.074;8.436;2023-02-18T02:25:51;11.10;99.90
4081;DHT22;2055;50.074;8.436;2023-02-18T02:28:36;11.00;99.90
4081;DHT22;2055;50.074;8.436;2023-02-18T02:45:20;11.10;99.90
4081;DHT22;2055;50.074;8.436;2023-02-18T02:47:50;11.20;99.90
4081;DHT22;2055;50.074;8.436;2023-02-18T02:50:43;11.10;99.90
4081;DHT22;2055;50.074;8.436;2023-02-18T02:53:14;11.10;99.90
4081;DHT22;2055;50.074;8.436;2023-02-18T02:55:41;11.10;99.90
4081;DHT22;2055;50.074;8.436;2023-02-18T02:58:08;11.10;99.90
4081;DHT22;2055;50.074;8.436;2023-02-18T03:04:24;11.00;99.90
4081;DHT22;2055;50.074;8.436;2023-02-18T03:07:23;11.00;99.90
4081;DHT22;2055;50.074;8.436;2023-02-18T03:10:04;11.00;99.90
4081;DHT22;2055;50.074;8.436;2023-02-18T03:17:57;11.00;99.90
4081;DHT22;2055;50.074;8.436;2023-02-18T03:20:30;11.20;99.90
4081;DHT22;2055;50.074;8.436;2023-02-18T03:23:01;11.00;99.90
4081;DHT22;2055;50.074;8.436;2023-02-18T03:25:30;11.00;99.90
4081;DHT22;2055;50.074;8.436;2023-02-18T03:27:59;11.00;99.90
4081;DHT22;2055;50.074;8.436;2023-02-18T03:30:35;11.00;99.90
4081;DHT22;2055;50.074;8.436;2023-02-18T03:33:05;11.10;99.90
4081;DHT22;2055;50.074;8.436;2023-02-18T03:35:32;11.10;99.90
4081;DHT22;2055;50.074;8.436;2023-02-18T03:38:11;11.10;99.90
4081;DHT22;2055;50.074;8.436;2023-02-18T03:40:39;11.10;99.90
4081;DHT22;2055;50.074;8.436;2023-02-18T03:43:04;11.10;99.90
4081;DHT22;2055;50.074;8.436;2023-02-18T03:45:30;11.10;99.90
4081;DHT22;2055;50.074;8.436;2023-02-18T03:47:55;11.00;99.90
4081;DHT22;2055;50.074;8.436;2023-02-18T03:50:21;11.00;99.90
4081;DHT22;2055;50.074;8.436;2023-02-18T03:52:47;11.00;99.90
4081;DHT22;2055;50.074;8.436;2023-02-18T03:55:12;11.00;99.90
4081;DHT22;2055;50.074;8.436;2023-02-18T03:57:38;11.00;99.90
4081;DHT22;2055;50.074;8.436;2023-02-18T04:00:04;11.00;99.90
4081;DHT22;2055;50.074;8.436;2023-02-18T04:02:31;11.00;99.90
4081;DHT22;2055;50.074;8.436;2023-02-18T04:04:57;11.00;99.90
4081;DHT22;2055;50.074;8.436;2023-02-18T04:07:23;11.00;99.90
4081;DHT22;2055;50.074;8.436;2023-02-18T04:09:48;11.00;99.90
4081;DHT22;2055;50.074;8.436;2023-02-18T04:12:14;11.00;99.90
4081;DHT22;2055;50.074;8.436;2023-02-18T04:14:39;11.00;99.90
4081;DHT22;2055;50.074;8.436;2023-02-18T04:17:05;11.00;99.90
4081;DHT22;2055;50.074;8.436;2023-02-18T04:19:30;11.00;99.90
4081;DHT22;2055;50.074;8.436;2023-02-18T04:21:56;11.10;99.90
4081;DHT22;2055;50.074;8.436;2023-02-18T04:24:21;11.10;99.90
4081;DHT22;2055;50.074;8.436;2023-02-18T04:26:47;11.10;99.90
4081;DHT22;2055;50.074;8.436;2023-02-18T04:29:12;11.10;99.90
4081;DHT22;2055;50.074;8.436;2023-02-18T04:31:38;11.10;99.90
4081;DHT22;2055;50.074;8.436;2023-02-18T04:34:03;11.10;99.90
4081;DHT22;2055;50.074;8.436;2023-02-18T04:36:29;11.00;99.90
4081;DHT22;2055;50.074;8.436;2023-02-18T04:38:54;11.00;99.90
4081;DHT22;2055;50.074;8.436;2023-02-18T04:41:20;11.00;99.90
4081;DHT22;2055;50.074;8.436;2023-02-18T04:43:46;11.00;99.90
4081;DHT22;2055;50.074;8.436;2023-02-18T04:46:11;11.00;99.90
4081;DHT22;2055;50.074;8.436;2023-02-18T04:48:37;11.00;99.90
4081;DHT22;2055;50.074;8.436;2023-02-18T04:51:02;11.00;99.90
4081;DHT22;2055;50.074;8.436;2023-02-18T04:53:28;11.00;99.90
4081;DHT22;2055;50.074;8.436;2023-02-18T04:55:53;11.00;99.90
4081;DHT22;2055;50.074;8.436;2023-02-18T04:58:20;11.00;99.90
4081;DHT22;2055;50.074;8.436;2023-02-18T05:00:45;11.00;99.90
4081;DHT22;2055;50.074;8.436;2023-02-18T05:03:11;11.00;99.90
4081;DHT22;2055;50.074;8.436;2023-02-18T05:05:37;11.00;99.90
4081;DHT22;2055;50.074;8.436;2023-02-18T05:08:03;10.90;99.90
4081;DHT22;2055;50.074;8.436;2023-02-18T05:10:29;10.90;99.90
4081;DHT22;2055;50.074;8.436;2023-02-18T05:12:54;10.80;99.90
4081;DHT22;2055;50.074;8.436;2023-02-18T05:15:20;10.80;99.90
4081;DHT22;2055;50.074;8.436;2023-02-18T05:17:45;10.80;99.90
4081;DHT22;2055;50.074;8.436;2023-02-18T05:20:11;10.80;99.90
4081;DHT22;2055;50.074;8.436;2023-02-18T05:22:37;10.90;99.90
4081;DHT22;2055;50.074;8.436;2023-02-18T05:25:03;10.90;99.90
4081;DHT22;2055;50.074;8.436;2023-02-18T05:27:29;10.90;99.90
4081;DHT22;2055;50.074;8.436;2023-02-18T05:29:54;10.90;99.90
4081;DHT22;2055;50.074;8.436;2023-02-18T05:32:20;10.90;99.90
4081;DHT22;2055;50.074;8.436;2023-02-18T05:34:45;10.90;99.90
4081;DHT22;2055;50.074;8.436;2023-02-18T05:37:11;10.90;99.90
4081;DHT22;2055;50.074;8.436;2023-02-18T05:39:38;10.90;99.90
4081;DHT22;2055;50.074;8.436;2023-02-18T05:42:03;10.90;99.90
4081;DHT22;2055;50.074;8.436;2023-02-18T05:44:29;10.90;99.90
4081;DHT22;2055;50.074;8.436;2023-02-18T05:46:55;10.90;99.90
4081;DHT22;2055;50.074;8.436;2023-02-18T05:49:20;10.90;99.90
4081;DHT22;2055;50.074;8.436;2023-02-18T05:51:46;10.90;99.90
4081;DHT22;2055;50.074;8.436;2023-02-18T05:54:12;10.90;99.90
4081;DHT22;2055;50.074;8.436;2023-02-18T05:56:37;11.00;99.90
4081;DHT22;2055;50.074;8.436;2023-02-18T05:59:03;11.00;99.90
4081;DHT22;2055;50.074;8.436;2023-02-18T06:01:28;11.00;99.90
4081;DHT22;2055;50.074;8.436;2023-02-18T06:03:54;10.80;99.90
4081;DHT22;2055;50.074;8.436;2023-02-18T06:06:19;11.00;99.90
4081;DHT22;2055;50.074;8.436;2023-02-18T06:08:45;11.00;99.90
4081;DHT22;2055;50.074;8.436;2023-02-18T06:11:10;11.00;99.90
4081;DHT22;2055;50.074;8.436;2023-02-18T06:13:35;11.00;99.90
4081;DHT22;2055;50.074;8.436;2023-02-18T06:16:01;11.00;99.90
4081;DHT22;2055;50.074;8.436;2023-02-18T06:18:27;11.00;99.90
4081;DHT22;2055;50.074;8.436;2023-02-18T06:20:52;11.00;99.90
4081;DHT22;2055;50.074;8.436;2023-02-18T06:23:18;11.00;99.90
4081;DHT22;2055;50.074;8.436;2023-02-18T06:25:43;11.00;99.90
4081;DHT22;2055;50.074;8.436;2023-02-18T06:28:09;11.00;99.90
4081;DHT22;2055;50.074;8.436;2023-02-18T06:30:34;11.00;99.90
4081;DHT22;2055;50.074;8.436;2023-02-18T06:33:00;11.00;99.90
4081;DHT22;2055;50.074;8.436;2023-02-18T06:35:28;11.00;99.90
4081;DHT22;2055;50.074;8.436;2023-02-18T06:37:54;11.00;99.90
4081;DHT22;2055;50.074;8.436;2023-02-18T06:40:19;11.00;99.90
4081;DHT22;2055;50.074;8.436;2023-02-18T06:42:45;11.00;99.90
4081;DHT22;2055;50.074;8.436;2023-02-18T06:45:10;11.00;99.90
4081;DHT22;2055;50.074;8.436;2023-02-18T06:47:36;11.00;99.90
4081;DHT22;2055;50.074;8.436;2023-02-18T06:50:02;11.00;99.90
4081;DHT22;2055;50.074;8.436;2023-02-18T06:52:28;11.00;99.90
4081;DHT22;2055;50.074;8.436;2023-02-18T06:54:55;11.10;99.90
4081;DHT22;2055;50.074;8.436;2023-02-18T06:57:20;11.00;99.90
4081;DHT22;2055;50.074;8.436;2023-02-18T06:59:46;11.00;99.90
4081;DHT22;2055;50.074;8.436;2023-02-18T07:02:14;11.00;99.90
4081;DHT22;2055;50.074;8.436;2023-02-18T07:04:40;11.00;99.90
4081;DHT22;2055;50.074;8.436;2023-02-18T07:07:05;10.90;99.90
4081;DHT22;2055;50.074;8.436;2023-02-18T07:09:31;10.90;99.90
4081;DHT22;2055;50.074;8.436;2023-02-18T07:11:56;10.90;99.90
4081;DHT22;2055;50.074;8.436;2023-02-18T07:14:22;10.90;99.90
4081;DHT22;2055;50.074;8.436;2023-02-18T07:16:49;10.90;99.90
4081;DHT22;2055;50.074;8.436;2023-02-18T07:19:14;10.80;99.90
4081;DHT22;2055;50.074;8.436;2023-02-18T07:21:40;10.90;99.90
4081;DHT22;2055;50.074;8.436;2023-02-18T07:24:06;10.90;99.90
4081;DHT22;2055;50.074;8.436;2023-02-18T07:26:31;10.90;99.90
4081;DHT22;2055;50.074;8.436;2023-02-18T07:28:57;10.90;99.90
4081;DHT22;2055;50.074;8.436;2023-02-18T07:31:22;10.90;99.90
4081;DHT22;2055;50.074;8.436;2023-02-18T07:33:48;10.90;99.90
4081;DHT22;2055;50.074;8.436;2023-02-18T07:36:13;11.00;99.90
4081;DHT22;2055;50.074;8.436;2023-02-18T07:38:40;11.00;99.90
4081;DHT22;2055;50.074;8.436;2023-02-18T07:41:06;11.00;99.90
4081;DHT22;2055;50.074;8.436;2023-02-18T07:43:31;11.00;99.90
4081;DHT22;2055;50.074;8.436;2023-02-18T07:45:57;11.00;99.90
4081;DHT22;2055;50.074;8.436;2023-02-18T07:48:23;11.00;99.90
4081;DHT22;2055;50.074;8.436;2023-02-18T07:50:48;11.00;99.90
4081;DHT22;2055;50.074;8.436;2023-02-18T07:53:15;11.00;99.90
4081;DHT22;2055;50.074;8.436;2023-02-18T07:55:41;11.00;99.90
4081;DHT22;2055;50.074;8.436;2023-02-18T07:58:18;11.10;99.90
4081;DHT22;2055;50.074;8.436;2023-02-18T08:00:45;11.10;99.90
4081;DHT22;2055;50.074;8.436;2023-02-18T08:03:13;11.10;99.90
4081;DHT22;2055;50.074;8.436;2023-02-18T08:05:39;11.20;99.90
4081;DHT22;2055;50.074;8.436;2023-02-18T08:08:04;11.20;99.90
4081;DHT22;2055;50.074;8.436;2023-02-18T08:10:30;11.20;99.90
4081;DHT22;2055;50.074;8.436;2023-02-18T08:12:55;11.20;99.90
4081;DHT22;2055;50.074;8.436;2023-02-18T08:15:21;11.20;99.90
4081;DHT22;2055;50.074;8.436;2023-02-18T08:17:46;11.20;99.90
4081;DHT22;2055;50.074;8.436;2023-02-18T08:20:12;11.20;99.90
4081;DHT22;2055;50.074;8.436;2023-02-18T08:22:38;11.30;99.90
4081;DHT22;2055;50.074;8.436;2023-02-18T08:25:04;11.30;99.90
4081;DHT22;2055;50.074;8.436;2023-02-18T08:27:30;11.30;99.90
4081;DHT22;2055;50.074;8.436;2023-02-18T08:29:56;11.30;99.90
4081;DHT22;2055;50.074;8.436;2023-02-18T08:32:21;11.30;99.90
4081;DHT22;2055;50.074;8.436;2023-02-18T08:34:47;11.30;99.90
4081;DHT22;2055;50.074;8.436;2023-02-18T08:37:12;11.30;99.90
4081;DHT22;2055;50.074;8.436;2023-02-18T08:39:38;11.30;99.90
4081;DHT22;2055;50.074;8.436;2023-02-18T08:42:04;11.30;99.90
4081;DHT22;2055;50.074;8.436;2023-02-18T08:44:29;11.40;99.90
4081;DHT22;2055;50.074;8.436;2023-02-18T08:46:55;11.40;99.90
4081;DHT22;2055;50.074;8.436;2023-02-18T08:49:20;11.40;99.90
4081;DHT22;2055;50.074;8.436;2023-02-18T08:51:49;11.40;99.90
4081;DHT22;2055;50.074;8.436;2023-02-18T08:54:14;11.40;99.90
4081;DHT22;2055;50.074;8.436;2023-02-18T08:56:40;11.40;99.90
4081;DHT22;2055;50.074;8.436;2023-02-18T08:59:06;11.40;99.90
4081;DHT22;2055;50.074;8.436;2023-02-18T09:01:31;11.50;99.90
4081;DHT22;2055;50.074;8.436;2023-02-18T09:03:57;11.50;99.90
4081;DHT22;2055;50.074;8.436;2023-02-18T09:06:22;11.60;99.90
4081;DHT22;2055;50.074;8.436;2023-02-18T09:08:48;11.60;99.90
4081;DHT22;2055;50.074;8.436;2023-02-18T09:11:14;11.60;99.90
4081;DHT22;2055;50.074;8.436;2023-02-18T09:13:40;11.60;99.90
4081;DHT22;2055;50.074;8.436;2023-02-18T09:16:09;11.60;99.90
4081;DHT22;2055;50.074;8.436;2023-02-18T09:18:36;11.70;99.90
4081;DHT22;2055;50.074;8.436;2023-02-18T09:21:05;11.70;99.90
4081;DHT22;2055;50.074;8.436;2023-02-18T09:23:31;11.60;99.90
4081;DHT22;2055;50.074;8.436;2023-02-18T09:25:58;11.70;99.90
4081;DHT22;2055;50.074;8.436;2023-02-18T09:28:24;11.50;99.90
4081;DHT22;2055;50.074;8.436;2023-02-18T09:30:49;11.60;99.90
4081;DHT22;2055;50.074;8.436;2023-02-18T09:33:16;11.60;99.90
4081;DHT22;2055;50.074;8.436;2023-02-18T09:35:48;11.50;99.90
4081;DHT22;2055;50.074;8.436;2023-02-18T09:38:16;11.50;99.90
4081;DHT22;2055;50.074;8.436;2023-02-18T09:40:44;11.50;99.90
4081;DHT22;2055;50.074;8.436;2023-02-18T09:43:33;11.60;99.90
4081;DHT22;2055;50.074;8.436;2023-02-18T09:46:01;11.60;99.90
4081;DHT22;2055;50.074;8.436;2023-02-18T09:48:34;11.60;99.90
4081;DHT22;2055;50.074;8.436;2023-02-18T09:51:00;11.60;99.90
4081;DHT22;2055;50.074;8.436;2023-02-18T09:53:26;11.60;99.90
4081;DHT22;2055;50.074;8.436;2023-02-18T09:55:54;11.60;99.90
4081;DHT22;2055;50.074;8.436;2023-02-18T09:58:23;11.60;99.90
4081;DHT22;2055;50.074;8.436;2023-02-18T10:00:56;11.60;99.90
4081;DHT22;2055;50.074;8.436;2023-02-18T10:03:25;11.60;99.90
4081;DHT22;2055;50.074;8.436;2023-02-18T10:06:06;11.70;99.90
4081;DHT22;2055;50.074;8.436;2023-02-18T10:08:35;11.70;99.90
4081;DHT22;2055;50.074;8.436;2023-02-18T10:11:01;11.70;99.90
4081;DHT22;2055;50.074;8.436;2023-02-18T10:13:29;11.70;99.90
4081;DHT22;2055;50.074;8.436;2023-02-18T10:15:55;11.70;99.90
4081;DHT22;2055;50.074;8.436;2023-02-18T10:18:33;11.70;99.90
4081;DHT22;2055;50.074;8.436;2023-02-18T10:21:20;11.70;99.90
4081;DHT22;2055;50.074;8.436;2023-02-18T10:26:19;11.70;99.90
4081;DHT22;2055;50.074;8.436;2023-02-18T10:28:45;11.70;99.90
4081;DHT22;2055;50.074;8.436;2023-02-18T10:31:17;11.70;99.90
4081;DHT22;2055;50.074;8.436;2023-02-18T10:36:45;11.60;99.90
4081;DHT22;2055;50.074;8.436;2023-02-18T10:47:39;11.40;99.90
4081;DHT22;2055;50.074;8.436;2023-02-18T10:52:42;11.50;99.90
4081;DHT22;2055;50.074;8.436;2023-02-18T10:55:15;11.60;99.90
4081;DHT22;2055;50.074;8.436;2023-02-18T10:57:51;11.60;99.90
4081;DHT22;2055;50.074;8.436;2023-02-18T11:00:21;11.50;99.90
4081;DHT22;2055;50.074;8.436;2023-02-18T11:05:42;11.40;99.90
4081;DHT22;2055;50.074;8.436;2023-02-18T11:08:12;11.40;99.90
4081;DHT22;2055;50.074;8.436;2023-02-18T11:10:41;11.40;99.90
4081;DHT22;2055;50.074;8.436;2023-02-18T11:13:09;11.40;99.90
4081;DHT22;2055;50.074;8.436;2023-02-18T11:15:37;11.50;99.90
4081;DHT22;2055;50.074;8.436;2023-02-18T11:21:01;11.50;99.90
4081;DHT22;2055;50.074;8.436;2023-02-18T11:23:28;11.50;99.90
4081;DHT22;2055;50.074;8.436;2023-02-18T11:26:05;11.60;99.90
4081;DHT22;2055;50.074;8.436;2023-02-18T11:28:39;11.50;99.90
4081;DHT22;2055;50.074;8.436;2023-02-18T11:31:07;11.10;99.90
4081;DHT22;2055;50.074;8.436;2023-02-18T11:33:51;11.50;99.90
4081;DHT22;2055;50.074;8.436;2023-02-18T11:36:33;11.50;99.90
4081;DHT22;2055;50.074;8.436;2023-02-18T11:39:19;11.50;99.90
4081;DHT22;2055;50.074;8.436;2023-02-18T11:41:52;11.50;99.90
4081;DHT22;2055;50.074;8.436;2023-02-18T11:44:37;11.40;99.90
4081;DHT22;2055;50.074;8.436;2023-02-18T11:50:20;11.40;99.90
4081;DHT22;2055;50.074;8.436;2023-02-18T11:52:48;12.20;99.90
4081;DHT22;2055;50.074;8.436;2023-02-18T11:55:20;11.40;99.90
4081;DHT22;2055;50.074;8.436;2023-02-18T11:57:56;11.50;99.90
4081;DHT22;2055;50.074;8.436;2023-02-18T12:00:35;11.50;99.90
4081;DHT22;2055;50.074;8.436;2023-02-18T12:03:06;11.60;99.90
4081;DHT22;2055;50.074;8.436;2023-02-18T12:05:33;11.50;99.90
4081;DHT22;2055;50.074;8.436;2023-02-18T12:08:14;11.50;99.90
4081;DHT22;2055;50.074;8.436;2023-02-18T12:11:13;11.50;99.90
4081;DHT22;2055;50.074;8.436;2023-02-18T12:13:49;11.50;99.90
4081;DHT22;2055;50.074;8.436;2023-02-18T12:16:22;11.60;99.90
4081;DHT22;2055;50.074;8.436;2023-02-18T12:33:00;11.90;99.90
4081;DHT22;2055;50.074;8.436;2023-02-18T12:47:09;12.20;99.90
4081;DHT22;2055;50.074;8.436;2023-02-18T12:52:50;12.10;99.90
4081;DHT22;2055;50.074;8.436;2023-02-18T12:55:34;12.10;99.90
4081;DHT22;2055;50.074;8.436;2023-02-18T12:58:18;12.10;99.90
4081;DHT22;2055;50.074;8.436;2023-02-18T13:03:36;12.20;99.90
4081;DHT22;2055;50.074;8.436;2023-02-18T13:09:31;12.40;99.90
4081;DHT22;2055;50.074;8.436;2023-02-18T13:15:19;12.00;99.90
4081;DHT22;2055;50.074;8.436;2023-02-18T13:17:46;11.80;99.90
4081;DHT22;2055;50.074;8.436;2023-02-18T13:20:20;11.70;99.90
4081;DHT22;2055;50.074;8.436;2023-02-18T13:22:47;11.70;99.90
4081;DHT22;2055;50.074;8.436;2023-02-18T13:25:16;11.70;99.90
4081;DHT22;2055;50.074;8.436;2023-02-18T13:28:06;11.80;99.90
4081;DHT22;2055;50.074;8.436;2023-02-18T13:30:50;11.80;99.90
4081;DHT22;2055;50.074;8.436;2023-02-18T13:33:37;11.60;99.90
4081;DHT22;2055;50.074;8.436;2023-02-18T13:41:22;11.10;99.90
4081;DHT22;2055;50.074;8.436;2023-02-18T13:43:49;11.20;99.90
4081;DHT22;2055;50.074;8.436;2023-02-18T13:46:18;11.20;99.90
4081;DHT22;2055;50.074;8.436;2023-02-18T13:48:47;11.20;99.90
4081;DHT22;2055;50.074;8.436;2023-02-18T13:54:20;11.50;99.90
4081;DHT22;2055;50.074;8.436;2023-02-18T13:56:59;11.60;99.90
4081;DHT22;2055;50.074;8.436;2023-02-18T13:59:43;11.70;99.90
4081;DHT22;2055;50.074;8.436;2023-02-18T14:09:54;11.50;99.90
4081;DHT22;2055;50.074;8.436;2023-02-18T14:12:35;11.50;99.90
4081;DHT22;2055;50.074;8.436;2023-02-18T14:15:52;11.50;99.90
4081;DHT22;2055;50.074;8.436;2023-02-18T14:26:08;11.30;99.90
4081;DHT22;2055;50.074;8.436;2023-02-18T14:36:55;11.40;99.90
4081;DHT22;2055;50.074;8.436;2023-02-18T14:39:45;11.40;99.90
4081;DHT22;2055;50.074;8.436;2023-02-18T14:42:55;11.40;99.90
4081;DHT22;2055;50.074;8.436;2023-02-18T14:45:28;11.40;99.90
4081;DHT22;2055;50.074;8.436;2023-02-18T14:50:59;11.50;99.90
4081;DHT22;2055;50.074;8.436;2023-02-18T14:53:26;11.50;99.90
4081;DHT22;2055;50.074;8.436;2023-02-18T14:56:03;11.60;99.90
4081;DHT22;2055;50.074;8.436;2023-02-18T14:58:35;11.60;99.90
4081;DHT22;2055;50.074;8.436;2023-02-18T15:01:26;11.70;99.90
4081;DHT22;2055;50.074;8.436;2023-02-18T15:03:53;11.70;99.90
4081;DHT22;2055;50.074;8.436;2023-02-18T15:08:58;11.70;99.90
4081;DHT22;2055;50.074;8.436;2023-02-18T15:11:35;11.70;99.90
4081;DHT22;2055;50.074;8.436;2023-02-18T15:14:07;11.70;99.90
4081;DHT22;2055;50.074;8.436;2023-02-18T15:16:35;11.70;99.90
4081;DHT22;2055;50.074;8.436;2023-02-18T15:19:03;11.70;99.90
4081;DHT22;2055;50.074;8.436;2023-02-18T15:21:32;11.70;99.90
4081;DHT22;2055;50.074;8.436;2023-02-18T15:24:06;11.70;99.90
4081;DHT22;2055;50.074;8.436;2023-02-18T15:26:34;11.70;99.90
4081;DHT22;2055;50.074;8.436;2023-02-18T15:29:03;11.70;99.90
4081;DHT22;2055;50.074;8.436;2023-02-18T15:31:36;11.80;99.90
4081;DHT22;2055;50.074;8.436;2023-02-18T15:36:52;11.70;99.90
4081;DHT22;2055;50.074;8.436;2023-02-18T15:39:18;11.70;99.90
4081;DHT22;2055;50.074;8.436;2023-02-18T15:41:43;11.80;99.90
4081;DHT22;2055;50.074;8.436;2023-02-18T15:44:19;11.70;99.90
4081;DHT22;2055;50.074;8.436;2023-02-18T15:46:45;11.70;99.90
4081;DHT22;2055;50.074;8.436;2023-02-18T15:49:15;11.60;99.90
4081;DHT22;2055;50.074;8.436;2023-02-18T15:51:44;11.70;99.90
4081;DHT22;2055;50.074;8.436;2023-02-18T15:54:16;11.60;99.90
4081;DHT22;2055;50.074;8.436;2023-02-18T15:56:44;11.60;99.90
4081;DHT22;2055;50.074;8.436;2023-02-18T16:04:22;11.40;99.90
4081;DHT22;2055;50.074;8.436;2023-02-18T16:06:51;11.50;99.90
4081;DHT22;2055;50.074;8.436;2023-02-18T16:09:31;11.50;99.90
4081;DHT22;2055;50.074;8.436;2023-02-18T16:11:59;11.40;99.90
4081;DHT22;2055;50.074;8.436;2023-02-18T16:14:46;11.40;99.90
4081;DHT22;2055;50.074;8.436;2023-02-18T16:24:58;11.40;99.90
4081;DHT22;2055;50.074;8.436;2023-02-18T16:27:31;11.30;99.90
4081;DHT22;2055;50.074;8.436;2023-02-18T16:30:00;11.30;99.90
4081;DHT22;2055;50.074;8.436;2023-02-18T16:32:26;11.30;99.90
4081;DHT22;2055;50.074;8.436;2023-02-18T16:34:52;11.30;99.90
4081;DHT22;2055;50.074;8.436;2023-02-18T16:37:17;11.20;99.90
4081;DHT22;2055;50.074;8.436;2023-02-18T16:40:02;11.20;99.90
4081;DHT22;2055;50.074;8.436;2023-02-18T16:42:27;11.20;99.90
4081;DHT22;2055;50.074;8.436;2023-02-18T16:44:53;11.20;99.90
4081;DHT22;2055;50.074;8.436;2023-02-18T16:47:19;11.10;99.90
4081;DHT22;2055;50.074;8.436;2023-02-18T16:49:47;11.20;99.90
4081;DHT22;2055;50.074;8.436;2023-02-18T16:52:15;11.10;99.90
4081;DHT22;2055;50.074;8.436;2023-02-18T16:54:42;11.20;99.90
4081;DHT22;2055;50.074;8.436;2023-02-18T16:57:11;11.20;99.90
4081;DHT22;2055;50.074;8.436;2023-02-18T16:59:36;11.10;99.90
4081;DHT22;2055;50.074;8.436;2023-02-18T17:02:02;11.10;99.90
4081;DHT22;2055;50.074;8.436;2023-02-18T17:04:28;11.10;99.90
4081;DHT22;2055;50.074;8.436;2023-02-18T17:06:53;11.00;99.90
4081;DHT22;2055;50.074;8.436;2023-02-18T17:09:21;11.00;99.90
4081;DHT22;2055;50.074;8.436;2023-02-18T17:11:49;11.00;99.90
4081;DHT22;2055;50.074;8.436;2023-02-18T17:14:17;10.90;99.90
4081;DHT22;2055;50.074;8.436;2023-02-18T17:16:44;11.00;99.90
4081;DHT22;2055;50.074;8.436;2023-02-18T17:19:10;11.00;99.90
4081;DHT22;2055;50.074;8.436;2023-02-18T17:21:36;11.00;99.90
4081;DHT22;2055;50.074;8.436;2023-02-18T17:24:01;11.00;99.90
4081;DHT22;2055;50.074;8.436;2023-02-18T17:26:28;11.00;99.90
4081;DHT22;2055;50.074;8.436;2023-02-18T17:28:56;11.00;99.90
4081;DHT22;2055;50.074;8.436;2023-02-18T17:31:35;11.20;99.90
4081;DHT22;2055;50.074;8.436;2023-02-18T17:34:05;11.00;99.90
4081;DHT22;2055;50.074;8.436;2023-02-18T17:36:31;11.00;99.90
4081;DHT22;2055;50.074;8.436;2023-02-18T17:38:57;11.00;99.90
4081;DHT22;2055;50.074;8.436;2023-02-18T17:41:23;10.90;99.90
4081;DHT22;2055;50.074;8.436;2023-02-18T17:43:49;10.90;99.90
4081;DHT22;2055;50.074;8.436;2023-02-18T17:46:16;10.90;99.90
4081;DHT22;2055;50.074;8.436;2023-02-18T17:48:43;10.90;99.90
4081;DHT22;2055;50.074;8.436;2023-02-18T17:51:22;11.00;99.90
4081;DHT22;2055;50.074;8.436;2023-02-18T17:53:48;10.90;99.90
4081;DHT22;2055;50.074;8.436;2023-02-18T17:56:13;10.90;99.90
4081;DHT22;2055;50.074;8.436;2023-02-18T17:58:39;10.90;99.90
4081;DHT22;2055;50.074;8.436;2023-02-18T18:01:04;10.80;99.90
4081;DHT22;2055;50.074;8.436;2023-02-18T18:03:30;10.80;99.90
4081;DHT22;2055;50.074;8.436;2023-02-18T18:05:55;10.80;99.90
4081;DHT22;2055;50.074;8.436;2023-02-18T18:08:22;10.80;99.90
4081;DHT22;2055;50.074;8.436;2023-02-18T18:10:59;10.80;99.90
4081;DHT22;2055;50.074;8.436;2023-02-18T18:13:27;10.70;99.90
4081;DHT22;2055;50.074;8.436;2023-02-18T18:15:53;10.70;99.90
4081;DHT22;2055;50.074;8.436;2023-02-18T18:18:19;10.70;99.90
4081;DHT22;2055;50.074;8.436;2023-02-18T18:20:47;10.80;99.90
4081;DHT22;2055;50.074;8.436;2023-02-18T18:23:15;10.80;99.90
4081;DHT22;2055;50.074;8.436;2023-02-18T18:25:53;10.70;99.90
4081;DHT22;2055;50.074;8.436;2023-02-18T18:28:19;10.70;99.90
4081;DHT22;2055;50.074;8.436;2023-02-18T18:30:47;10.70;99.90
4081;DHT22;2055;50.074;8.436;2023-02-18T18:33:18;10.70;99.90
4081;DHT22;2055;50.074;8.436;2023-02-18T18:35:45;10.70;99.90
4081;DHT22;2055;50.074;8.436;2023-02-18T18:38:12;10.60;99.90
4081;DHT22;2055;50.074;8.436;2023-02-18T18:40:39;10.60;99.90
4081;DHT22;2055;50.074;8.436;2023-02-18T18:43:05;10.60;99.90
4081;DHT22;2055;50.074;8.436;2023-02-18T18:45:35;10.60;99.90
4081;DHT22;2055;50.074;8.436;2023-02-18T18:48:02;10.60;99.90
4081;DHT22;2055;50.074;8.436;2023-02-18T18:50:28;10.50;99.90
4081;DHT22;2055;50.074;8.436;2023-02-18T18:52:54;10.50;99.90